Aeroporto :
LOGIN :

Iscrizione | Disclaimer

   EN    FR    IT 

 










Sommario :    VFR   VFR Marginale   IFR   IFR Intensivo   IFR Molto Intensivo
Visibilità : 
Base nubi : 
>= 8 km
>= 3000ft
5 / 8 km
1000 / 3000 ft
1500m / 5 km
500 / 1000 ft
800 / 1500m
200 / 500 ft
< 800m
< 200 ft
Simboli :   Temporali  Nebbia  Neve Forte  Precipitazioni Forti  Vento > 20 kt
SIGMETs :   Varie  Temporali  Ghiacco  Turbolenza  Onda orograficha  Ceneri Vulcaniche







- Altitudine del aeroporto : 202 ft
- Codice IATA : SQZ


EGXP - RAF Scampton

ULTIMO METAR :
  • 240750Z 06003KT 3500 BR OVC090 10/10 Q0993 YLO1

METARs OBSOLETI :
  • 240650Z 04004KT 3500 BR OVC110 09/08 Q0993 YLO1
  • 240550Z AUTO 02005KT 2600 // BKN140/// 08/07 Q0993
  • 240450Z AUTO 02006KT 2300 // BKN220/// 07/06 Q0993

TAF TAF EGXP
Valido dal 24 a 06 ore il 24 a 15 ore UTC


240443Z 2406/2415 03008KT 4000 BR NSC
PROB40
TEMPO 2406/2408 2000 SCT003
BECMG 2408/2411 9999 NSW
BECMG 2411/2413 14016KT
PROB40
TEMPO 2413/2415 15018G32KT 3000 +TSRA BKN018CB
Nessun NOTAM noto per questo aeroporto.



MetMap, La meteo Aeronautica in un colpo d'occhio ! - Copyright ORBIFLY Dicembre 2007 - Disclaimer

ORBIFLY MET'MAP TEAM :

Programmazione e sviluppo : Alexandra Zaïnal
Concezione e sviluppo : Baudouin d'Aumeries
Co-Programmazione e sviluppo : Marc-Olivier Méhu
Supporto tecnico e logistico : Manuel Goepfert
Aiuto per la traduzione : Arnaldo La Scala

Contatto : metmap@orbifly.com




FONTI E CREDITI :

   NOAA